sensor_id;sensor_type;location;lat;lon;timestamp;P1;durP1;ratioP1;P2;durP2;ratioP2
21758;SDS011;11041;50.854;20.580;2023-09-19T00:02:02;20.27;;;16.58;;
21758;SDS011;11041;50.854;20.580;2023-09-19T00:04:34;21.80;;;17.80;;
21758;SDS011;11041;50.854;20.580;2023-09-19T00:07:06;19.02;;;17.05;;
21758;SDS011;11041;50.854;20.580;2023-09-19T00:09:32;23.13;;;17.92;;
21758;SDS011;11041;50.854;20.580;2023-09-19T00:12:06;20.88;;;17.98;;
21758;SDS011;11041;50.854;20.580;2023-09-19T00:14:34;22.38;;;17.42;;
21758;SDS011;11041;50.854;20.580;2023-09-19T00:17:02;22.15;;;17.65;;
21758;SDS011;11041;50.854;20.580;2023-09-19T00:19:37;20.25;;;16.45;;
21758;SDS011;11041;50.854;20.580;2023-09-19T00:22:04;18.80;;;16.10;;
21758;SDS011;11041;50.854;20.580;2023-09-19T00:24:31;19.80;;;16.52;;
21758;SDS011;11041;50.854;20.580;2023-09-19T00:26:58;20.33;;;17.45;;
21758;SDS011;11041;50.854;20.580;2023-09-19T00:29:25;19.15;;;17.02;;
21758;SDS011;11041;50.854;20.580;2023-09-19T00:31:55;19.15;;;15.60;;
21758;SDS011;11041;50.854;20.580;2023-09-19T00:34:26;20.88;;;17.42;;
21758;SDS011;11041;50.854;20.580;2023-09-19T00:36:53;21.48;;;17.08;;
21758;SDS011;11041;50.854;20.580;2023-09-19T00:39:20;21.23;;;16.45;;
21758;SDS011;11041;50.854;20.580;2023-09-19T00:41:51;20.85;;;17.08;;
21758;SDS011;11041;50.854;20.580;2023-09-19T00:44:18;22.33;;;17.33;;
21758;SDS011;11041;50.854;20.580;2023-09-19T00:46:47;21.25;;;17.40;;
21758;SDS011;11041;50.854;20.580;2023-09-19T00:49:16;21.00;;;16.98;;
21758;SDS011;11041;50.854;20.580;2023-09-19T00:51:47;23.25;;;17.17;;
21758;SDS011;11041;50.854;20.580;2023-09-19T00:54:14;22.92;;;17.45;;
21758;SDS011;11041;50.854;20.580;2023-09-19T00:56:44;21.95;;;17.70;;
21758;SDS011;11041;50.854;20.580;2023-09-19T00:59:11;19.50;;;17.40;;
21758;SDS011;11041;50.854;20.580;2023-09-19T01:01:39;22.20;;;17.17;;
21758;SDS011;11041;50.854;20.580;2023-09-19T01:04:06;23.08;;;16.35;;
21758;SDS011;11041;50.854;20.580;2023-09-19T01:06:36;20.73;;;17.58;;
21758;SDS011;11041;50.854;20.580;2023-09-19T01:09:03;20.60;;;17.05;;
21758;SDS011;11041;50.854;20.580;2023-09-19T01:11:35;18.02;;;15.88;;
21758;SDS011;11041;50.854;20.580;2023-09-19T01:14:17;21.50;;;17.45;;
21758;SDS011;11041;50.854;20.580;2023-09-19T01:17:09;21.75;;;17.52;;
21758;SDS011;11041;50.854;20.580;2023-09-19T01:32:06;21.00;;;17.15;;
21758;SDS011;11041;50.854;20.580;2023-09-19T01:37:19;21.35;;;17.88;;
21758;SDS011;11041;50.854;20.580;2023-09-19T01:39:52;21.67;;;17.20;;
21758;SDS011;11041;50.854;20.580;2023-09-19T01:45:59;21.15;;;17.75;;
21758;SDS011;11041;50.854;20.580;2023-09-19T01:51:25;19.23;;;16.13;;
21758;SDS011;11041;50.854;20.580;2023-09-19T01:54:09;21.23;;;16.30;;
21758;SDS011;11041;50.854;20.580;2023-09-19T01:56:45;22.13;;;16.63;;
21758;SDS011;11041;50.854;20.580;2023-09-19T01:59:20;20.67;;;16.08;;
21758;SDS011;11041;50.854;20.580;2023-09-19T02:01:54;17.60;;;15.73;;
21758;SDS011;11041;50.854;20.580;2023-09-19T02:04:25;16.70;;;14.90;;
21758;SDS011;11041;50.854;20.580;2023-09-19T02:06:55;19.25;;;15.63;;
21758;SDS011;11041;50.854;20.580;2023-09-19T02:09:24;19.63;;;15.38;;
21758;SDS011;11041;50.854;20.580;2023-09-19T02:11:52;17.38;;;15.43;;
21758;SDS011;11041;50.854;20.580;2023-09-19T02:14:21;17.23;;;14.80;;
21758;SDS011;11041;50.854;20.580;2023-09-19T02:16:51;17.70;;;15.90;;
21758;SDS011;11041;50.854;20.580;2023-09-19T02:19:19;18.38;;;15.65;;
21758;SDS011;11041;50.854;20.580;2023-09-19T02:21:47;18.73;;;16.17;;
21758;SDS011;11041;50.854;20.580;2023-09-19T02:24:14;17.73;;;15.80;;
21758;SDS011;11041;50.854;20.580;2023-09-19T02:26:41;18.20;;;15.75;;
21758;SDS011;11041;50.854;20.580;2023-09-19T02:29:10;16.38;;;14.45;;
21758;SDS011;11041;50.854;20.580;2023-09-19T02:31:38;19.38;;;15.18;;
21758;SDS011;11041;50.854;20.580;2023-09-19T02:34:06;18.85;;;15.57;;
21758;SDS011;11041;50.854;20.580;2023-09-19T02:36:38;17.85;;;14.98;;
21758;SDS011;11041;50.854;20.580;2023-09-19T02:39:05;17.75;;;14.75;;
21758;SDS011;11041;50.854;20.580;2023-09-19T02:41:34;17.42;;;14.95;;
21758;SDS011;11041;50.854;20.580;2023-09-19T02:44:06;18.35;;;14.02;;
21758;SDS011;11041;50.854;20.580;2023-09-19T02:46:36;16.27;;;13.98;;
21758;SDS011;11041;50.854;20.580;2023-09-19T02:49:04;16.92;;;13.95;;
21758;SDS011;11041;50.854;20.580;2023-09-19T02:51:32;18.23;;;13.80;;
21758;SDS011;11041;50.854;20.580;2023-09-19T02:54:01;15.20;;;13.60;;
21758;SDS011;11041;50.854;20.580;2023-09-19T02:56:29;16.52;;;13.98;;
21758;SDS011;11041;50.854;20.580;2023-09-19T02:58:57;15.65;;;13.82;;
21758;SDS011;11041;50.854;20.580;2023-09-19T03:01:26;20.65;;;13.82;;
21758;SDS011;11041;50.854;20.580;2023-09-19T03:03:58;15.02;;;13.32;;
21758;SDS011;11041;50.854;20.580;2023-09-19T03:06:27;16.30;;;13.73;;
21758;SDS011;11041;50.854;20.580;2023-09-19T03:08:57;18.85;;;14.90;;
21758;SDS011;11041;50.854;20.580;2023-09-19T03:11:26;16.67;;;13.45;;
21758;SDS011;11041;50.854;20.580;2023-09-19T03:13:55;17.02;;;13.02;;
21758;SDS011;11041;50.854;20.580;2023-09-19T03:16:24;15.82;;;13.55;;
21758;SDS011;11041;50.854;20.580;2023-09-19T03:18:53;17.33;;;13.55;;
21758;SDS011;11041;50.854;20.580;2023-09-19T03:21:20;16.02;;;13.23;;
21758;SDS011;11041;50.854;20.580;2023-09-19T03:23:51;16.88;;;12.23;;
21758;SDS011;11041;50.854;20.580;2023-09-19T03:26:24;16.52;;;13.38;;
21758;SDS011;11041;50.854;20.580;2023-09-19T03:28:52;14.18;;;12.23;;
21758;SDS011;11041;50.854;20.580;2023-09-19T03:31:22;15.10;;;12.55;;
21758;SDS011;11041;50.854;20.580;2023-09-19T03:33:53;14.98;;;12.90;;
21758;SDS011;11041;50.854;20.580;2023-09-19T03:36:26;16.35;;;12.18;;
21758;SDS011;11041;50.854;20.580;2023-09-19T03:38:55;17.48;;;12.98;;
21758;SDS011;11041;50.854;20.580;2023-09-19T03:41:27;14.23;;;12.73;;
21758;SDS011;11041;50.854;20.580;2023-09-19T03:43:53;15.48;;;12.23;;
21758;SDS011;11041;50.854;20.580;2023-09-19T03:46:23;15.43;;;12.88;;
21758;SDS011;11041;50.854;20.580;2023-09-19T03:48:52;14.90;;;12.55;;
21758;SDS011;11041;50.854;20.580;2023-09-19T03:51:22;19.20;;;13.13;;
21758;SDS011;11041;50.854;20.580;2023-09-19T03:53:51;14.90;;;12.80;;
21758;SDS011;11041;50.854;20.580;2023-09-19T03:56:21;14.27;;;12.43;;
21758;SDS011;11041;50.854;20.580;2023-09-19T03:58:51;15.02;;;12.88;;
21758;SDS011;11041;50.854;20.580;2023-09-19T04:01:18;15.00;;;12.50;;
21758;SDS011;11041;50.854;20.580;2023-09-19T04:03:44;14.27;;;12.77;;
21758;SDS011;11041;50.854;20.580;2023-09-19T04:06:15;14.95;;;13.40;;
21758;SDS011;11041;50.854;20.580;2023-09-19T04:08:46;15.45;;;13.82;;
21758;SDS011;11041;50.854;20.580;2023-09-19T04:11:15;18.02;;;13.60;;
21758;SDS011;11041;50.854;20.580;2023-09-19T04:13:42;15.95;;;14.20;;
21758;SDS011;11041;50.854;20.580;2023-09-19T04:16:12;15.98;;;14.27;;
21758;SDS011;11041;50.854;20.580;2023-09-19T04:18:39;19.33;;;14.90;;
21758;SDS011;11041;50.854;20.580;2023-09-19T04:21:10;15.90;;;14.20;;
21758;SDS011;11041;50.854;20.580;2023-09-19T04:23:38;18.55;;;15.80;;
21758;SDS011;11041;50.854;20.580;2023-09-19T04:26:08;21.88;;;15.57;;
21758;SDS011;11041;50.854;20.580;2023-09-19T04:28:35;18.60;;;15.20;;
21758;SDS011;11041;50.854;20.580;2023-09-19T04:31:06;18.27;;;15.90;;
21758;SDS011;11041;50.854;20.580;2023-09-19T04:33:34;19.05;;;15.95;;
21758;SDS011;11041;50.854;20.580;2023-09-19T04:36:01;18.73;;;16.35;;
21758;SDS011;11041;50.854;20.580;2023-09-19T04:38:33;24.90;;;18.27;;
21758;SDS011;11041;50.854;20.580;2023-09-19T04:41:00;20.67;;;17.60;;
21758;SDS011;11041;50.854;20.580;2023-09-19T04:43:30;23.70;;;18.48;;
21758;SDS011;11041;50.854;20.580;2023-09-19T04:45:58;22.88;;;17.05;;
21758;SDS011;11041;50.854;20.580;2023-09-19T04:48:26;20.50;;;16.65;;
21758;SDS011;11041;50.854;20.580;2023-09-19T04:50:55;21.05;;;16.27;;
21758;SDS011;11041;50.854;20.580;2023-09-19T04:53:22;21.38;;;17.65;;
21758;SDS011;11041;50.854;20.580;2023-09-19T04:55:53;21.15;;;17.25;;
21758;SDS011;11041;50.854;20.580;2023-09-19T04:58:21;20.23;;;16.65;;
21758;SDS011;11041;50.854;20.580;2023-09-19T05:00:50;20.85;;;17.98;;
21758;SDS011;11041;50.854;20.580;2023-09-19T05:03:22;22.38;;;17.92;;
21758;SDS011;11041;50.854;20.580;2023-09-19T05:05:51;22.52;;;19.52;;
21758;SDS011;11041;50.854;20.580;2023-09-19T05:08:19;22.73;;;18.95;;
21758;SDS011;11041;50.854;20.580;2023-09-19T05:10:48;24.17;;;18.67;;
21758;SDS011;11041;50.854;20.580;2023-09-19T05:13:14;19.83;;;17.65;;
21758;SDS011;11041;50.854;20.580;2023-09-19T05:15:42;21.75;;;17.55;;
21758;SDS011;11041;50.854;20.580;2023-09-19T05:18:08;21.75;;;18.60;;
21758;SDS011;11041;50.854;20.580;2023-09-19T05:20:36;20.88;;;17.50;;
21758;SDS011;11041;50.854;20.580;2023-09-19T05:23:05;21.83;;;18.60;;
21758;SDS011;11041;50.854;20.580;2023-09-19T05:25:35;20.45;;;16.52;;
21758;SDS011;11041;50.854;20.580;2023-09-19T05:28:05;22.38;;;18.20;;
21758;SDS011;11041;50.854;20.580;2023-09-19T05:30:34;22.08;;;17.52;;
21758;SDS011;11041;50.854;20.580;2023-09-19T05:33:05;19.38;;;17.33;;
21758;SDS011;11041;50.854;20.580;2023-09-19T05:35:32;19.98;;;17.90;;
21758;SDS011;11041;50.854;20.580;2023-09-19T05:38:05;23.10;;;17.80;;
21758;SDS011;11041;50.854;20.580;2023-09-19T05:40:36;21.42;;;17.58;;
21758;SDS011;11041;50.854;20.580;2023-09-19T05:43:04;21.40;;;17.73;;
21758;SDS011;11041;50.854;20.580;2023-09-19T05:45:35;19.73;;;17.63;;
21758;SDS011;11041;50.854;20.580;2023-09-19T05:48:10;22.73;;;18.02;;
21758;SDS011;11041;50.854;20.580;2023-09-19T05:50:41;23.05;;;18.05;;
21758;SDS011;11041;50.854;20.580;2023-09-19T05:53:09;21.77;;;17.90;;
21758;SDS011;11041;50.854;20.580;2023-09-19T05:55:39;22.27;;;17.83;;
21758;SDS011;11041;50.854;20.580;2023-09-19T05:58:08;23.70;;;18.38;;
21758;SDS011;11041;50.854;20.580;2023-09-19T06:00:36;21.88;;;18.40;;
21758;SDS011;11041;50.854;20.580;2023-09-19T06:03:04;21.92;;;18.48;;
21758;SDS011;11041;50.854;20.580;2023-09-19T06:05:36;23.88;;;18.95;;
21758;SDS011;11041;50.854;20.580;2023-09-19T06:08:09;24.55;;;19.58;;
21758;SDS011;11041;50.854;20.580;2023-09-19T06:10:38;25.88;;;19.88;;
21758;SDS011;11041;50.854;20.580;2023-09-19T06:13:09;25.88;;;19.48;;
21758;SDS011;11041;50.854;20.580;2023-09-19T06:15:36;27.25;;;20.55;;
21758;SDS011;11041;50.854;20.580;2023-09-19T06:18:10;27.83;;;20.02;;
21758;SDS011;11041;50.854;20.580;2023-09-19T06:20:40;31.75;;;21.58;;
21758;SDS011;11041;50.854;20.580;2023-09-19T06:23:12;27.40;;;21.27;;
21758;SDS011;11041;50.854;20.580;2023-09-19T06:25:39;26.52;;;21.33;;
21758;SDS011;11041;50.854;20.580;2023-09-19T06:28:11;29.80;;;22.33;;
21758;SDS011;11041;50.854;20.580;2023-09-19T06:30:46;29.00;;;22.08;;
21758;SDS011;11041;50.854;20.580;2023-09-19T06:33:15;32.30;;;22.90;;
21758;SDS011;11041;50.854;20.580;2023-09-19T06:35:47;33.83;;;24.33;;
21758;SDS011;11041;50.854;20.580;2023-09-19T06:38:14;30.33;;;22.67;;
21758;SDS011;11041;50.854;20.580;2023-09-19T06:40:45;30.05;;;22.88;;
21758;SDS011;11041;50.854;20.580;2023-09-19T06:43:15;32.35;;;24.02;;
21758;SDS011;11041;50.854;20.580;2023-09-19T06:45:44;31.65;;;23.63;;
21758;SDS011;11041;50.854;20.580;2023-09-19T06:48:11;32.67;;;24.00;;
21758;SDS011;11041;50.854;20.580;2023-09-19T06:50:41;33.55;;;25.08;;
21758;SDS011;11041;50.854;20.580;2023-09-19T06:53:09;38.17;;;25.70;;
21758;SDS011;11041;50.854;20.580;2023-09-19T06:55:36;34.67;;;27.17;;
21758;SDS011;11041;50.854;20.580;2023-09-19T06:58:07;35.22;;;25.58;;
21758;SDS011;11041;50.854;20.580;2023-09-19T07:00:36;44.72;;;28.20;;
21758;SDS011;11041;50.854;20.580;2023-09-19T07:03:06;39.53;;;27.50;;
21758;SDS011;11041;50.854;20.580;2023-09-19T07:05:38;32.35;;;25.30;;
21758;SDS011;11041;50.854;20.580;2023-09-19T07:08:07;38.08;;;27.35;;
21758;SDS011;11041;50.854;20.580;2023-09-19T07:10:38;39.00;;;26.98;;
21758;SDS011;11041;50.854;20.580;2023-09-19T07:13:07;39.67;;;28.85;;
21758;SDS011;11041;50.854;20.580;2023-09-19T07:15:38;41.10;;;27.42;;
21758;SDS011;11041;50.854;20.580;2023-09-19T07:18:07;38.55;;;27.23;;
21758;SDS011;11041;50.854;20.580;2023-09-19T07:20:36;35.25;;;26.98;;
21758;SDS011;11041;50.854;20.580;2023-09-19T07:23:04;39.90;;;27.20;;
21758;SDS011;11041;50.854;20.580;2023-09-19T07:25:34;40.95;;;28.48;;
21758;SDS011;11041;50.854;20.580;2023-09-19T07:28:01;44.03;;;30.63;;
21758;SDS011;11041;50.854;20.580;2023-09-19T07:30:29;54.40;;;32.63;;
21758;SDS011;11041;50.854;20.580;2023-09-19T07:33:02;49.55;;;30.98;;
21758;SDS011;11041;50.854;20.580;2023-09-19T07:35:31;57.05;;;33.67;;
21758;SDS011;11041;50.854;20.580;2023-09-19T07:38:00;53.85;;;33.05;;
21758;SDS011;11041;50.854;20.580;2023-09-19T07:40:28;45.72;;;31.05;;
21758;SDS011;11041;50.854;20.580;2023-09-19T07:42:55;47.53;;;32.45;;
21758;SDS011;11041;50.854;20.580;2023-09-19T07:45:22;50.70;;;34.00;;
21758;SDS011;11041;50.854;20.580;2023-09-19T07:47:50;59.10;;;34.25;;
21758;SDS011;11041;50.854;20.580;2023-09-19T07:50:21;56.85;;;35.35;;
21758;SDS011;11041;50.854;20.580;2023-09-19T07:52:48;56.80;;;33.70;;
21758;SDS011;11041;50.854;20.580;2023-09-19T07:55:19;51.92;;;33.33;;
21758;SDS011;11041;50.854;20.580;2023-09-19T07:57:49;48.90;;;33.20;;
21758;SDS011;11041;50.854;20.580;2023-09-19T08:00:18;47.03;;;32.80;;
21758;SDS011;11041;50.854;20.580;2023-09-19T08:02:45;52.55;;;33.55;;
21758;SDS011;11041;50.854;20.580;2023-09-19T08:05:13;54.45;;;33.85;;
21758;SDS011;11041;50.854;20.580;2023-09-19T08:07:46;56.47;;;33.63;;
21758;SDS011;11041;50.854;20.580;2023-09-19T08:10:15;51.67;;;33.03;;
21758;SDS011;11041;50.854;20.580;2023-09-19T08:12:46;57.25;;;34.25;;
21758;SDS011;11041;50.854;20.580;2023-09-19T08:15:16;44.78;;;31.67;;
21758;SDS011;11041;50.854;20.580;2023-09-19T08:17:45;44.67;;;30.92;;
21758;SDS011;11041;50.854;20.580;2023-09-19T08:20:14;46.15;;;30.65;;
21758;SDS011;11041;50.854;20.580;2023-09-19T08:22:52;39.85;;;29.92;;
21758;SDS011;11041;50.854;20.580;2023-09-19T08:25:23;42.35;;;30.42;;
21758;SDS011;11041;50.854;20.580;2023-09-19T08:27:54;40.28;;;28.70;;
21758;SDS011;11041;50.854;20.580;2023-09-19T08:30:24;37.33;;;26.42;;
21758;SDS011;11041;50.854;20.580;2023-09-19T08:33:03;40.25;;;25.95;;
21758;SDS011;11041;50.854;20.580;2023-09-19T08:35:30;32.50;;;25.65;;
21758;SDS011;11041;50.854;20.580;2023-09-19T08:37:57;36.13;;;24.95;;
21758;SDS011;11041;50.854;20.580;2023-09-19T08:40:30;39.88;;;25.88;;
21758;SDS011;11041;50.854;20.580;2023-09-19T08:42:59;32.20;;;25.73;;
21758;SDS011;11041;50.854;20.580;2023-09-19T08:45:27;30.75;;;25.90;;
21758;SDS011;11041;50.854;20.580;2023-09-19T08:47:57;34.22;;;25.80;;
21758;SDS011;11041;50.854;20.580;2023-09-19T08:51:06;35.03;;;25.95;;
21758;SDS011;11041;50.854;20.580;2023-09-19T08:53:50;34.22;;;26.55;;
21758;SDS011;11041;50.854;20.580;2023-09-19T08:56:30;37.95;;;28.17;;
21758;SDS011;11041;50.854;20.580;2023-09-19T08:59:00;38.50;;;29.83;;
21758;SDS011;11041;50.854;20.580;2023-09-19T09:01:30;40.97;;;29.80;;
21758;SDS011;11041;50.854;20.580;2023-09-19T09:04:01;43.00;;;28.98;;
21758;SDS011;11041;50.854;20.580;2023-09-19T09:06:40;36.35;;;32.03;;
21758;SDS011;11041;50.854;20.580;2023-09-19T09:09:10;40.10;;;32.55;;
21758;SDS011;11041;50.854;20.580;2023-09-19T09:11:37;43.78;;;34.50;;
21758;SDS011;11041;50.854;20.580;2023-09-19T09:14:09;39.83;;;31.88;;
21758;SDS011;11041;50.854;20.580;2023-09-19T09:16:40;42.28;;;34.17;;
21758;SDS011;11041;50.854;20.580;2023-09-19T09:19:07;46.85;;;35.92;;
21758;SDS011;11041;50.854;20.580;2023-09-19T09:21:33;51.45;;;38.08;;
21758;SDS011;11041;50.854;20.580;2023-09-19T09:27:03;45.97;;;35.75;;
21758;SDS011;11041;50.854;20.580;2023-09-19T09:29:43;48.55;;;38.45;;
21758;SDS011;11041;50.854;20.580;2023-09-19T09:32:28;49.92;;;38.53;;
21758;SDS011;11041;50.854;20.580;2023-09-19T09:34:59;50.15;;;37.88;;
21758;SDS011;11041;50.854;20.580;2023-09-19T09:37:30;46.17;;;38.00;;
21758;SDS011;11041;50.854;20.580;2023-09-19T09:39:57;53.05;;;39.97;;
21758;SDS011;11041;50.854;20.580;2023-09-19T09:42:40;48.58;;;38.03;;
21758;SDS011;11041;50.854;20.580;2023-09-19T09:48:00;42.70;;;35.03;;
21758;SDS011;11041;50.854;20.580;2023-09-19T09:50:46;43.30;;;33.78;;
21758;SDS011;11041;50.854;20.580;2023-09-19T09:55:59;36.72;;;30.05;;
21758;SDS011;11041;50.854;20.580;2023-09-19T09:58:32;40.55;;;31.77;;
21758;SDS011;11041;50.854;20.580;2023-09-19T10:01:06;39.05;;;31.27;;
21758;SDS011;11041;50.854;20.580;2023-09-19T10:03:37;40.17;;;31.60;;
21758;SDS011;11041;50.854;20.580;2023-09-19T10:06:12;44.15;;;31.77;;
21758;SDS011;11041;50.854;20.580;2023-09-19T10:09:05;40.92;;;33.38;;
21758;SDS011;11041;50.854;20.580;2023-09-19T10:12:03;47.65;;;33.83;;
21758;SDS011;11041;50.854;20.580;2023-09-19T10:14:35;44.55;;;31.90;;
21758;SDS011;11041;50.854;20.580;2023-09-19T10:17:09;39.53;;;28.52;;
21758;SDS011;11041;50.854;20.580;2023-09-19T10:22:59;32.78;;;24.92;;
21758;SDS011;11041;50.854;20.580;2023-09-19T10:25:29;30.05;;;24.95;;
21758;SDS011;11041;50.854;20.580;2023-09-19T10:28:02;31.73;;;23.95;;
21758;SDS011;11041;50.854;20.580;2023-09-19T10:30:36;32.28;;;23.92;;
21758;SDS011;11041;50.854;20.580;2023-09-19T10:33:10;31.30;;;25.40;;
21758;SDS011;11041;50.854;20.580;2023-09-19T10:35:47;28.40;;;22.55;;
21758;SDS011;11041;50.854;20.580;2023-09-19T10:38:20;30.95;;;23.27;;
21758;SDS011;11041;50.854;20.580;2023-09-19T10:40:55;27.58;;;20.52;;
21758;SDS011;11041;50.854;20.580;2023-09-19T10:43:27;35.33;;;25.77;;
21758;SDS011;11041;50.854;20.580;2023-09-19T10:46:00;33.97;;;27.38;;
21758;SDS011;11041;50.854;20.580;2023-09-19T10:48:32;33.38;;;26.08;;
21758;SDS011;11041;50.854;20.580;2023-09-19T10:51:02;34.40;;;26.20;;
21758;SDS011;11041;50.854;20.580;2023-09-19T10:56:46;32.05;;;24.27;;
21758;SDS011;11041;50.854;20.580;2023-09-19T10:59:17;26.63;;;21.85;;
21758;SDS011;11041;50.854;20.580;2023-09-19T11:04:23;24.73;;;19.35;;
21758;SDS011;11041;50.854;20.580;2023-09-19T11:07:08;25.10;;;18.52;;
21758;SDS011;11041;50.854;20.580;2023-09-19T11:14:56;21.75;;;15.93;;
21758;SDS011;11041;50.854;20.580;2023-09-19T11:30:35;18.13;;;14.75;;
21758;SDS011;11041;50.854;20.580;2023-09-19T11:36:07;19.30;;;15.60;;
21758;SDS011;11041;50.854;20.580;2023-09-19T11:41:56;21.05;;;15.65;;
21758;SDS011;11041;50.854;20.580;2023-09-19T11:46:56;22.00;;;17.45;;
21758;SDS011;11041;50.854;20.580;2023-09-19T11:49:29;23.73;;;18.17;;
21758;SDS011;11041;50.854;20.580;2023-09-19T11:51:59;25.67;;;17.83;;
21758;SDS011;11041;50.854;20.580;2023-09-19T11:54:35;25.48;;;18.75;;
21758;SDS011;11041;50.854;20.580;2023-09-19T11:57:07;25.30;;;19.30;;
21758;SDS011;11041;50.854;20.580;2023-09-19T11:59:37;24.20;;;18.73;;
21758;SDS011;11041;50.854;20.580;2023-09-19T12:02:06;23.92;;;18.98;;
21758;SDS011;11041;50.854;20.580;2023-09-19T12:04:40;25.02;;;19.27;;
21758;SDS011;11041;50.854;20.580;2023-09-19T12:07:11;27.90;;;19.60;;
21758;SDS011;11041;50.854;20.580;2023-09-19T12:09:45;30.67;;;20.02;;
21758;SDS011;11041;50.854;20.580;2023-09-19T12:12:24;25.75;;;18.73;;
21758;SDS011;11041;50.854;20.580;2023-09-19T12:14:59;23.67;;;18.42;;
21758;SDS011;11041;50.854;20.580;2023-09-19T12:17:36;22.27;;;16.10;;
21758;SDS011;11041;50.854;20.580;2023-09-19T12:20:11;26.17;;;19.42;;
21758;SDS011;11041;50.854;20.580;2023-09-19T12:22:42;26.85;;;17.20;;
21758;SDS011;11041;50.854;20.580;2023-09-19T12:25:12;23.98;;;16.58;;
21758;SDS011;11041;50.854;20.580;2023-09-19T12:27:42;16.92;;;13.95;;
21758;SDS011;11041;50.854;20.580;2023-09-19T12:30:14;19.52;;;13.55;;
21758;SDS011;11041;50.854;20.580;2023-09-19T12:32:43;21.10;;;13.77;;
21758;SDS011;11041;50.854;20.580;2023-09-19T12:35:26;21.95;;;13.32;;
21758;SDS011;11041;50.854;20.580;2023-09-19T12:38:00;19.05;;;12.95;;
21758;SDS011;11041;50.854;20.580;2023-09-19T12:40:29;20.15;;;15.80;;
21758;SDS011;11041;50.854;20.580;2023-09-19T12:42:59;20.35;;;14.82;;
21758;SDS011;11041;50.854;20.580;2023-09-19T12:45:29;20.67;;;15.05;;
21758;SDS011;11041;50.854;20.580;2023-09-19T12:51:03;21.45;;;15.18;;
21758;SDS011;11041;50.854;20.580;2023-09-19T12:53:38;21.10;;;16.85;;
21758;SDS011;11041;50.854;20.580;2023-09-19T12:56:08;21.77;;;15.90;;
21758;SDS011;11041;50.854;20.580;2023-09-19T12:58:55;19.77;;;15.40;;
21758;SDS011;11041;50.854;20.580;2023-09-19T13:01:29;21.10;;;16.15;;
21758;SDS011;11041;50.854;20.580;2023-09-19T13:04:15;18.20;;;14.27;;
21758;SDS011;11041;50.854;20.580;2023-09-19T13:06:53;18.60;;;13.82;;
21758;SDS011;11041;50.854;20.580;2023-09-19T13:09:21;16.70;;;14.18;;
21758;SDS011;11041;50.854;20.580;2023-09-19T13:12:00;23.63;;;16.02;;
21758;SDS011;11041;50.854;20.580;2023-09-19T13:14:28;18.70;;;12.52;;
21758;SDS011;11041;50.854;20.580;2023-09-19T13:17:06;19.83;;;13.82;;
21758;SDS011;11041;50.854;20.580;2023-09-19T13:19:45;15.43;;;13.30;;
21758;SDS011;11041;50.854;20.580;2023-09-19T13:25:20;15.98;;;12.85;;
21758;SDS011;11041;50.854;20.580;2023-09-19T13:27:48;15.38;;;12.38;;
21758;SDS011;11041;50.854;20.580;2023-09-19T13:30:18;18.17;;;13.18;;
21758;SDS011;11041;50.854;20.580;2023-09-19T13:32:46;17.23;;;12.98;;
21758;SDS011;11041;50.854;20.580;2023-09-19T13:35:17;18.15;;;13.57;;
21758;SDS011;11041;50.854;20.580;2023-09-19T13:37:45;19.20;;;14.90;;
21758;SDS011;11041;50.854;20.580;2023-09-19T13:40:15;23.17;;;15.45;;
21758;SDS011;11041;50.854;20.580;2023-09-19T13:42:42;23.15;;;15.65;;
21758;SDS011;11041;50.854;20.580;2023-09-19T13:45:09;27.00;;;16.67;;
21758;SDS011;11041;50.854;20.580;2023-09-19T13:47:38;22.73;;;17.17;;
21758;SDS011;11041;50.854;20.580;2023-09-19T13:50:05;23.85;;;16.30;;
21758;SDS011;11041;50.854;20.580;2023-09-19T13:52:34;23.63;;;14.65;;
21758;SDS011;11041;50.854;20.580;2023-09-19T13:55:03;18.30;;;14.43;;
21758;SDS011;11041;50.854;20.580;2023-09-19T13:57:32;21.65;;;15.48;;
21758;SDS011;11041;50.854;20.580;2023-09-19T13:59:59;23.65;;;16.05;;
21758;SDS011;11041;50.854;20.580;2023-09-19T14:02:26;23.90;;;14.48;;
21758;SDS011;11041;50.854;20.580;2023-09-19T14:04:55;22.02;;;14.85;;
21758;SDS011;11041;50.854;20.580;2023-09-19T14:07:23;22.83;;;15.25;;
21758;SDS011;11041;50.854;20.580;2023-09-19T14:09:50;24.58;;;14.68;;
21758;SDS011;11041;50.854;20.580;2023-09-19T14:12:18;20.95;;;13.73;;
21758;SDS011;11041;50.854;20.580;2023-09-19T14:14:45;22.48;;;14.80;;
21758;SDS011;11041;50.854;20.580;2023-09-19T14:17:12;22.98;;;15.60;;
21758;SDS011;11041;50.854;20.580;2023-09-19T14:19:40;20.45;;;15.20;;
21758;SDS011;11041;50.854;20.580;2023-09-19T14:22:09;17.77;;;15.80;;
21758;SDS011;11041;50.854;20.580;2023-09-19T14:24:36;17.77;;;15.65;;
21758;SDS011;11041;50.854;20.580;2023-09-19T14:27:03;19.88;;;16.42;;
21758;SDS011;11041;50.854;20.580;2023-09-19T14:29:34;20.23;;;16.13;;
21758;SDS011;11041;50.854;20.580;2023-09-19T14:32:02;17.92;;;16.02;;
21758;SDS011;11041;50.854;20.580;2023-09-19T14:34:28;17.58;;;15.73;;
21758;SDS011;11041;50.854;20.580;2023-09-19T14:36:55;15.35;;;13.57;;
21758;SDS011;11041;50.854;20.580;2023-09-19T14:39:22;19.60;;;15.73;;
21758;SDS011;11041;50.854;20.580;2023-09-19T14:41:50;22.67;;;15.35;;
21758;SDS011;11041;50.854;20.580;2023-09-19T14:44:17;16.88;;;15.02;;
21758;SDS011;11041;50.854;20.580;2023-09-19T14:46:44;17.40;;;15.23;;
21758;SDS011;11041;50.854;20.580;2023-09-19T14:49:11;17.65;;;15.18;;
21758;SDS011;11041;50.854;20.580;2023-09-19T14:51:42;18.95;;;14.48;;
21758;SDS011;11041;50.854;20.580;2023-09-19T14:54:11;18.23;;;14.05;;
21758;SDS011;11041;50.854;20.580;2023-09-19T14:56:38;19.90;;;14.32;;
21758;SDS011;11041;50.854;20.580;2023-09-19T14:59:05;18.40;;;15.98;;
21758;SDS011;11041;50.854;20.580;2023-09-19T15:01:34;19.70;;;16.10;;
21758;SDS011;11041;50.854;20.580;2023-09-19T15:04:02;17.35;;;15.55;;
21758;SDS011;11041;50.854;20.580;2023-09-19T15:06:32;16.85;;;13.98;;
21758;SDS011;11041;50.854;20.580;2023-09-19T15:08:59;16.45;;;14.95;;
21758;SDS011;11041;50.854;20.580;2023-09-19T15:11:26;15.55;;;14.13;;
21758;SDS011;11041;50.854;20.580;2023-09-19T15:13:53;15.98;;;13.80;;
21758;SDS011;11041;50.854;20.580;2023-09-19T15:16:21;15.50;;;13.90;;
21758;SDS011;11041;50.854;20.580;2023-09-19T15:18:47;16.20;;;14.52;;
21758;SDS011;11041;50.854;20.580;2023-09-19T15:21:15;13.38;;;11.98;;
21758;SDS011;11041;50.854;20.580;2023-09-19T15:23:44;14.82;;;13.25;;
21758;SDS011;11041;50.854;20.580;2023-09-19T15:26:13;13.82;;;12.63;;
21758;SDS011;11041;50.854;20.580;2023-09-19T15:28:46;16.20;;;13.38;;
21758;SDS011;11041;50.854;20.580;2023-09-19T15:31:14;18.05;;;16.17;;
21758;SDS011;11041;50.854;20.580;2023-09-19T15:33:41;15.95;;;14.45;;
21758;SDS011;11041;50.854;20.580;2023-09-19T15:38:55;19.10;;;15.60;;
21758;SDS011;11041;50.854;20.580;2023-09-19T15:41:26;23.58;;;16.92;;
21758;SDS011;11041;50.854;20.580;2023-09-19T15:43:57;26.17;;;18.85;;